Suggestion Search

Define a bounding box (note: it will not wrap North/South over poles). If the range is zero degrees, a bounding box will not be used to constrain the search.

Centered On °   °

Match text in the suggestion title, science rationale or special notes. The search is case-insensitive. % is a wildcard (_ for a single character).

Find
Search

You may select science themes to limit query, otherwise suggestions from all themes will be returned.

Multiple values may be selected (shift + click).

  Rows per page
54 records found, displaying all records.1
ID Suggestion Title Latitude Longitude Repeat Created Observation ID
43482 Wall of inner Olympus Mons caldera 18.051 226.512 1 2010-02-02 ESP_018521_1980
46732 Kipuka of older material in eastern Tharsis region -1.071 269.171 1 2010-04-01 ESP_017702_1790
51368 Jovis Tholus caldera 18.268 242.422 1 2010-07-05 ESP_036612_1985
53500 Syria Planum shield volcano -10.309 258.566 1 2010-09-28 ESP_025535_1695
53502 Small shield-like feature near Noctis Labyrinthus -8.337 254.864 1 2010-09-28 ESP_043337_1715
53504 Dome between Ius and Tithonium Chasmae -5.929 273.075 1 2010-09-28 ESP_028462_1740
53506 Elongated rimless depression 24.066 142.210 1 2010-09-28
53508 Phoenix Lander 68.196 234.269 1 2010-09-28 ESP_023175_2485
53596 Elysium Mons caldera 24.662 146.810 1 2010-10-01 ESP_035811_2050
54080 Possible landslide on crater rim -11.049 270.257 1 2010-10-10 ESP_024928_1690
54082 Hills in Syria Planum -9.639 262.526 1 2010-10-10 ESP_021579_1700
54084 Volcano with overlying lobate ejecta -8.239 256.907 1 2010-10-10 ESP_024823_1715
54086 Possible volcano features in Syria Planum -8.155 256.517 1 2010-10-10 ESP_026023_1720
54088 Possible vent in Noctis Labyrinthus -7.496 255.762 1 2010-10-10 ESP_022344_1725
54162 Circular feature in Tempe Terra 42.704 273.684 1 2010-10-12 ESP_045367_2230
54164 Small shield on north flank of Uranius Patera 27.220 266.859 1 2010-10-12 ESP_022027_2075
54462 Possible vent in Ceraunius Fossae 26.278 249.629 1 2010-10-15 ESP_028977_2065
54464 Summit of elongated volcano in Ceraunius Fossae 25.527 250.266 1 2010-10-15 ESP_030401_2060
54466 Fissure in Ceraunius Fossae 30.073 248.061 1 2010-10-15
54468 Possible small shield and impact crater in Ceraunius Fossae 29.662 247.997 1 2010-10-15 ESP_026155_2100
54564 Small shield inside graben in Noctis Labyrinthus -3.256 255.440 1 2010-10-20 ESP_020076_1765
54732 Northeast flank of Ascraeus Mons 12.785 257.783 1 2010-10-28 ESP_046383_1930
54736 Cones in Ceraunius Fossae 24.490 254.998 1 2010-10-28 ESP_025891_2050
54738 Two isolated mesas in Ceraunius Fossae 24.704 255.018 1 2010-10-28 ESP_025891_2050
55358 Possible metamorphic outcrop 19.225 234.218 1 2010-11-14 ESP_020736_1995
55802 Small volcano northwest of Ascreaus Mons 14.870 249.752 1 2010-11-30 ESP_020419_1950
55804 Low shield northwest of Ascraeus Mons 14.152 252.033 1 2010-11-30 ESP_036994_1945
55806 Northwest of Ascraeus Mons 15.898 250.812 1 2010-11-30
55808 Possible vent in Ulysses Fossae 15.427 238.722 1 2010-11-30 ESP_026551_1955
55810 Flows in Ulysses Fossae 15.021 239.030 1 2010-11-30 ESP_026129_1950
55816 Ulysses Fossae 15.358 238.917 1 2010-11-30 ESP_028806_1955
56536 Noctis Labyrinthus -4.349 254.380 1 2011-01-01 ESP_021632_1755
72080 Small shield volcano east of Pavonis Mons -0.970 252.571 1 2012-04-04 ESP_027289_1790
72082 Mound south of Ascraeus Mons 4.341 254.869 1 2012-04-04 ESP_028278_1845
72084 Low shield southeast of Pavonis Mons -2.704 252.485 1 2012-04-04 ESP_044669_1775
72086 Mound west of Noctis Labyrinthus -7.880 249.030 1 2012-04-04 ESP_036836_1720
72088 Prominent shield volcano in Syria Planum -12.214 258.132 1 2012-04-04 ESP_027368_1675
76426 Mesa in upland northwest of Argyre Planitia -21.374 300.377 1 2012-08-02
182916 Line of cones north of Arsia Sulci -2.427 231.584 1 2020-05-21
182962 Spatter cones in Tharsis region 6.396 261.620 1 2020-05-22 ESP_066440_1865
183126 Cone in Tempe Terra 33.122 273.690 1 2020-05-28
54472 Cratered dome in Tempe Terra 33.825 271.637 1 2010-10-15 ESP_028541_2140
54726 Elysium Mons caldera 24.662 146.810 1 2010-10-28 ESP_037011_2050
55338 Possible vent in Ceraunius Fossae 26.278 249.629 1 2010-11-12 ESP_029122_2065
56534 Small shield volcano north of Noctis Labyrinthus -3.088 254.312 1 2011-01-01 ESP_046370_1770
53598 Circular feature on Alba Patera 40.321 250.692 STEREO 2010-10-01 ESP_025324_2205
54166 Small shield on north flank of Uranius Mons 27.415 267.212 STEREO 2010-10-12 ESP_026062_2075
54566 Deepest area of the caldera complex on Olympus Mons 17.929 226.352 STEREO 2010-10-20 ESP_043272_1980
182912 Steep dark floored crater with wind streak and dunes 3.003 354.615 STEREO 2020-05-21
182914 Steep dark floored crater with wind streak and dunes 3.003 354.615 STEREO 2020-05-21
182918 Crater near Uranius Mons 27.806 271.016 STEREO 2020-05-22
182920 Crater near Uranius Mons 27.806 271.016 STEREO 2020-05-22
182952 Possible volcanic caldera in Terra Sirenum -26.858 211.146 STEREO 2020-05-22 ESP_066442_1530
182954 Possible volcanic caldera in Terra Sirenum -26.858 211.146 STEREO 2020-05-22

Each suggestion is given a unique ID. A stereo suggestion will be made into a pair at the discretion of the Science Theme Lead.

Suggestion title.

Latitudes are expressed in planetocentric degrees.

Longitude are measured in degrees and range east from 0 to 360.

1 for a single suggestion, STEREO for a stereo suggestion, otherwise the number of suggestions in a seasonal or other repeat set.

The date on which the suggestion was created.

If the suggestion has been retired, a link to the observation page.

The username of the suggester.